Time;durP1;ratioP1;P1;durP2;ratioP2;P2;SDS_P1;SDS_P2;PMS_P1;PMS_P2;Temp;Humidity;BMP_temperature;BMP_pressure;BME280_temperature;BME280_humidity;BME280_pressure;Samples;Min_cycle;Max_cycle;Signal;HPM_P1;HPM_P2
2023/04/26 00:00:07;;;;;;;53.20;11.55;;;;;;;;;;5091559;28;20024;-40
2023/04/26 00:02:34;;;;;;;59.42;11.65;;;;;;;;;;5099830;28;20032;-37
2023/04/26 00:05:02;;;;;;;61.78;11.57;;;;;;;;;;5101978;28;20034;-38
2023/04/26 00:07:29;;;;;;;50.50;11.77;;;;;;;;;;5101060;28;20039;-39
2023/04/26 00:09:56;;;;;;;64.43;12.15;;;;;;;;;;5099676;28;20107;-38
2023/04/26 00:12:24;;;;;;;56.75;11.40;;;;;;;;;;5101260;28;20032;-40
2023/04/26 00:14:51;;;;;;;57.63;12.50;;;;;;;;;;5100909;28;20088;-39
2023/04/26 00:17:18;;;;;;;55.13;11.57;;;;;;;;;;5098939;28;20055;-39
2023/04/26 00:19:45;;;;;;;58.65;12.52;;;;;;;;;;5101044;28;20032;-39
2023/04/26 00:22:14;;;;;;;65.55;13.65;;;;;;;;;;5094550;28;20773;-39
2023/04/26 00:24:41;;;;;;;60.53;12.00;;;;;;;;;;5091491;28;20028;-37
2023/04/26 00:27:09;;;;;;;55.75;12.85;;;;;;;;;;5092612;28;20051;-43
2023/04/26 00:29:36;;;;;;;54.97;12.73;;;;;;;;;;5084356;28;20039;-37
2023/04/26 00:32:03;;;;;;;63.53;13.13;;;;;;;;;;5085731;28;20509;-38
2023/04/26 00:34:34;;;;;;;57.60;13.27;;;;;;;;;;5084715;28;20032;-37
2023/04/26 00:37:02;;;;;;;61.80;15.20;;;;;;;;;;5089666;28;20028;-40
2023/04/26 00:39:29;;;;;;;63.03;13.68;;;;;;;;;;5084163;28;20040;-37
2023/04/26 00:41:56;;;;;;;64.32;13.77;;;;;;;;;;5088261;28;20024;-37
2023/04/26 00:44:23;;;;;;;77.47;19.08;;;;;;;;;;5084952;28;20563;-39
2023/04/26 00:46:52;;;;;;;107.72;26.60;;;;;;;;;;5065430;28;20036;-37
2023/04/26 00:49:21;;;;;;;125.97;33.33;;;;;;;;;;5076091;28;20031;-37
2023/04/26 00:51:48;;;;;;;144.95;38.83;;;;;;;;;;5071186;28;20028;-39
2023/04/26 00:54:15;;;;;;;169.98;41.55;;;;;;;;;;5086956;28;20035;-37
2023/04/26 00:56:43;;;;;;;167.15;40.55;;;;;;;;;;5069539;28;20075;-38
2023/04/26 00:59:10;;;;;;;159.07;38.83;;;;;;;;;;5071526;28;20033;-38
2023/04/26 01:01:37;;;;;;;144.57;36.60;;;;;;;;;;5054503;28;20036;-37
2023/04/26 01:04:04;;;;;;;149.73;37.45;;;;;;;;;;5077235;28;20035;-36
2023/04/26 01:06:34;;;;;;;141.50;36.55;;;;;;;;;;5077250;28;20028;-39
2023/04/26 01:09:09;;;;;;;144.20;36.13;;;;;;;;;;5084280;28;20031;-44
2023/04/26 01:11:37;;;;;;;137.60;35.63;;;;;;;;;;5089885;28;20035;-37
2023/04/26 01:14:07;;;;;;;134.73;34.33;;;;;;;;;;5067494;28;20054;-39
2023/04/26 01:16:35;;;;;;;134.52;34.30;;;;;;;;;;5072964;28;20047;-40
2023/04/26 01:19:11;;;;;;;131.18;31.90;;;;;;;;;;5073232;28;20033;-37
2023/04/26 01:21:39;;;;;;;115.47;31.00;;;;;;;;;;5073049;28;20033;-37
2023/04/26 01:24:07;;;;;;;113.28;29.67;;;;;;;;;;5075137;28;20025;-37
2023/04/26 01:26:34;;;;;;;108.03;28.15;;;;;;;;;;5072882;28;20478;-39
2023/04/26 01:29:01;;;;;;;105.95;26.88;;;;;;;;;;5073249;28;20445;-37
2023/04/26 01:31:28;;;;;;;91.78;26.17;;;;;;;;;;5076906;28;20069;-38
2023/04/26 01:33:55;;;;;;;103.90;27.60;;;;;;;;;;5092739;28;20036;-39
2023/04/26 01:36:22;;;;;;;95.47;27.35;;;;;;;;;;5074402;28;20056;-37
2023/04/26 01:38:49;;;;;;;91.50;26.70;;;;;;;;;;5061090;28;20029;-38
2023/04/26 01:41:16;;;;;;;86.68;25.38;;;;;;;;;;5080547;28;20034;-37
2023/04/26 01:43:43;;;;;;;90.00;24.60;;;;;;;;;;5078497;28;20036;-37
2023/04/26 01:46:10;;;;;;;77.13;23.48;;;;;;;;;;5090519;28;20028;-37
2023/04/26 01:48:37;;;;;;;83.90;22.35;;;;;;;;;;5091590;28;20038;-39
2023/04/26 01:51:04;;;;;;;76.10;20.73;;;;;;;;;;5075112;28;20709;-38
2023/04/26 01:53:31;;;;;;;85.20;22.20;;;;;;;;;;5090876;28;20020;-39
2023/04/26 01:56:02;;;;;;;76.40;20.73;;;;;;;;;;5092383;28;20115;-39
2023/04/26 01:58:32;;;;;;;73.10;20.38;;;;;;;;;;5092009;28;20059;-37
2023/04/26 02:01:05;;;;;;;78.00;21.23;;;;;;;;;;5093553;28;20020;-37
2023/04/26 02:03:32;;;;;;;87.78;20.73;;;;;;;;;;5093186;28;20082;-39
2023/04/26 02:05:59;;;;;;;64.95;20.48;;;;;;;;;;5075284;28;20054;-37
2023/04/26 02:08:26;;;;;;;73.50;19.63;;;;;;;;;;5093541;28;20046;-37
2023/04/26 02:10:53;;;;;;;64.03;19.95;;;;;;;;;;5092357;28;20482;-37
2023/04/26 02:13:21;;;;;;;78.60;20.20;;;;;;;;;;5093556;28;20570;-37
2023/04/26 02:15:50;;;;;;;77.25;21.23;;;;;;;;;;5092896;28;20036;-38
2023/04/26 02:18:20;;;;;;;77.70;20.33;;;;;;;;;;5093241;28;20035;-37
2023/04/26 02:20:47;;;;;;;66.15;18.90;;;;;;;;;;5093135;28;20032;-37
2023/04/26 02:23:15;;;;;;;66.68;19.25;;;;;;;;;;5093021;28;20020;-37
2023/04/26 02:25:46;;;;;;;76.00;19.33;;;;;;;;;;5092945;28;20035;-38
2023/04/26 02:28:14;;;;;;;64.43;18.75;;;;;;;;;;5092956;28;20036;-38
2023/04/26 02:30:43;;;;;;;57.90;18.85;;;;;;;;;;5092846;28;20489;-38
2023/04/26 02:33:11;;;;;;;69.13;18.38;;;;;;;;;;5092755;28;20558;-38
2023/04/26 02:35:38;;;;;;;57.20;18.25;;;;;;;;;;5092733;28;20249;-38
2023/04/26 02:38:06;;;;;;;58.40;17.67;;;;;;;;;;5092869;28;20028;-39
2023/04/26 02:40:33;;;;;;;51.97;17.60;;;;;;;;;;5092733;28;20028;-38
2023/04/26 02:43:00;;;;;;;60.42;18.17;;;;;;;;;;5092801;28;20109;-39
2023/04/26 02:45:27;;;;;;;63.90;17.63;;;;;;;;;;5092507;28;20458;-39
2023/04/26 02:47:54;;;;;;;57.33;17.63;;;;;;;;;;5092449;28;20111;-39
2023/04/26 02:50:21;;;;;;;55.40;17.80;;;;;;;;;;5092797;28;20113;-39
2023/04/26 02:52:48;;;;;;;52.38;16.83;;;;;;;;;;5092802;28;20020;-39
2023/04/26 02:55:16;;;;;;;60.67;17.98;;;;;;;;;;5092520;28;20122;-39
2023/04/26 02:57:43;;;;;;;53.65;16.40;;;;;;;;;;5092354;28;20494;-39
2023/04/26 03:00:12;;;;;;;52.95;17.30;;;;;;;;;;5092593;28;20036;-40
2023/04/26 03:02:39;;;;;;;54.80;17.27;;;;;;;;;;5092477;28;20097;-39
2023/04/26 03:05:08;;;;;;;57.78;17.40;;;;;;;;;;5092503;28;20066;-39
2023/04/26 03:07:35;;;;;;;53.42;16.15;;;;;;;;;;5092378;28;20039;-39
2023/04/26 03:10:03;;;;;;;58.05;16.85;;;;;;;;;;5092560;28;20464;-39
2023/04/26 03:12:30;;;;;;;51.47;17.00;;;;;;;;;;5092251;28;20413;-39
2023/04/26 03:14:57;;;;;;;52.75;16.38;;;;;;;;;;5092254;28;20024;-39
2023/04/26 03:17:24;;;;;;;50.10;15.85;;;;;;;;;;5092340;28;20077;-41
2023/04/26 03:19:51;;;;;;;50.22;15.68;;;;;;;;;;5092290;28;20036;-39
2023/04/26 03:22:18;;;;;;;55.97;17.13;;;;;;;;;;5092073;28;20020;-39
2023/04/26 03:24:46;;;;;;;47.38;15.18;;;;;;;;;;5073826;28;20389;-39
2023/04/26 03:27:13;;;;;;;45.33;14.35;;;;;;;;;;5092012;28;20093;-39
2023/04/26 03:29:40;;;;;;;44.40;15.23;;;;;;;;;;5092233;28;20062;-39
2023/04/26 03:32:07;;;;;;;50.03;15.85;;;;;;;;;;5092076;28;20512;-40
2023/04/26 03:34:34;;;;;;;45.67;15.85;;;;;;;;;;5091900;28;20036;-39
2023/04/26 03:37:02;;;;;;;47.83;14.73;;;;;;;;;;5092001;28;20430;-39
2023/04/26 03:39:29;;;;;;;49.25;15.05;;;;;;;;;;5092008;28;20044;-40
2023/04/26 03:41:56;;;;;;;48.25;15.40;;;;;;;;;;5091916;28;20032;-39
2023/04/26 03:44:23;;;;;;;43.72;13.90;;;;;;;;;;5091943;28;20028;-39
2023/04/26 03:46:50;;;;;;;44.95;13.52;;;;;;;;;;5091838;28;20020;-41
2023/04/26 03:49:17;;;;;;;46.53;15.80;;;;;;;;;;5091835;28;20075;-39
2023/04/26 03:51:44;;;;;;;40.03;14.35;;;;;;;;;;5091779;28;20024;-39
2023/04/26 03:54:11;;;;;;;42.13;14.27;;;;;;;;;;5091697;28;20504;-39
2023/04/26 03:56:38;;;;;;;42.15;13.98;;;;;;;;;;5091555;28;20055;-39
2023/04/26 03:59:06;;;;;;;42.85;14.55;;;;;;;;;;5091580;28;20043;-39
2023/04/26 04:01:33;;;;;;;37.45;13.02;;;;;;;;;;5091651;28;20024;-40
2023/04/26 04:04:00;;;;;;;32.67;12.55;;;;;;;;;;5073537;28;20486;-39
2023/04/26 04:06:27;;;;;;;40.35;14.20;;;;;;;;;;5073386;28;20470;-39
2023/04/26 04:08:54;;;;;;;38.55;13.57;;;;;;;;;;5091733;28;20044;-41
2023/04/26 04:11:22;;;;;;;39.88;13.95;;;;;;;;;;5091575;28;20032;-39
2023/04/26 04:13:48;;;;;;;37.10;12.63;;;;;;;;;;5091550;28;20050;-39
2023/04/26 04:16:15;;;;;;;35.17;12.95;;;;;;;;;;5091535;28;20016;-41
2023/04/26 04:18:43;;;;;;;35.00;13.75;;;;;;;;;;5091519;28;20478;-39
2023/04/26 04:21:10;;;;;;;40.72;13.75;;;;;;;;;;5091504;28;20059;-39
2023/04/26 04:23:37;;;;;;;37.92;13.23;;;;;;;;;;5091335;28;20063;-39
2023/04/26 04:26:04;;;;;;;32.67;12.95;;;;;;;;;;5091281;28;20526;-39
2023/04/26 04:28:33;;;;;;;33.65;12.50;;;;;;;;;;5091520;28;20109;-39
2023/04/26 04:31:00;;;;;;;31.73;12.77;;;;;;;;;;5091475;28;20028;-39
2023/04/26 04:33:27;;;;;;;30.40;12.25;;;;;;;;;;5093175;28;20375;-39
2023/04/26 04:35:54;;;;;;;29.25;12.05;;;;;;;;;;5095284;28;20024;-42
2023/04/26 04:38:22;;;;;;;32.00;12.52;;;;;;;;;;5095391;28;20103;-39
2023/04/26 04:40:49;;;;;;;34.67;12.02;;;;;;;;;;5095385;28;20028;-39
2023/04/26 04:43:16;;;;;;;30.08;11.95;;;;;;;;;;5095196;28;20048;-40
2023/04/26 04:45:43;;;;;;;32.47;11.95;;;;;;;;;;5095174;28;20028;-39
2023/04/26 04:48:10;;;;;;;31.15;11.98;;;;;;;;;;5095136;28;20039;-39
2023/04/26 04:50:39;;;;;;;29.50;12.15;;;;;;;;;;5095003;28;20509;-39
2023/04/26 04:53:06;;;;;;;30.67;11.15;;;;;;;;;;5095046;28;20028;-39
2023/04/26 04:55:33;;;;;;;32.03;11.32;;;;;;;;;;5094817;28;20032;-39
2023/04/26 04:58:00;;;;;;;29.73;11.90;;;;;;;;;;5094843;28;20482;-40
2023/04/26 05:00:27;;;;;;;26.83;10.50;;;;;;;;;;5094798;28;20040;-39
2023/04/26 05:02:55;;;;;;;31.27;11.63;;;;;;;;;;5094955;28;20024;-39
2023/04/26 05:05:22;;;;;;;27.05;10.57;;;;;;;;;;5094701;28;20044;-39
2023/04/26 05:07:49;;;;;;;29.55;10.85;;;;;;;;;;5094764;28;20534;-39
2023/04/26 05:10:16;;;;;;;33.42;12.00;;;;;;;;;;5094819;28;20132;-40
2023/04/26 05:12:43;;;;;;;25.13;10.63;;;;;;;;;;5094735;28;20031;-39
2023/04/26 05:15:10;;;;;;;28.88;10.52;;;;;;;;;;5094566;28;20037;-39
2023/04/26 05:17:37;;;;;;;25.20;9.70;;;;;;;;;;5094619;28;20103;-41
2023/04/26 05:20:05;;;;;;;22.73;9.75;;;;;;;;;;5094605;28;20028;-39
2023/04/26 05:22:35;;;;;;;25.80;10.27;;;;;;;;;;5094523;28;20553;-39
2023/04/26 05:25:03;;;;;;;26.75;10.10;;;;;;;;;;5094339;28;20501;-39
2023/04/26 05:27:30;;;;;;;26.45;10.05;;;;;;;;;;5094325;28;20032;-42
2023/04/26 05:29:57;;;;;;;24.50;10.43;;;;;;;;;;5076109;28;20032;-39
2023/04/26 05:32:24;;;;;;;25.95;10.00;;;;;;;;;;5094340;28;20020;-39
2023/04/26 05:34:51;;;;;;;26.30;10.27;;;;;;;;;;5094073;28;20454;-42
2023/04/26 05:37:18;;;;;;;21.33;9.80;;;;;;;;;;5094459;28;20043;-39
2023/04/26 05:39:45;;;;;;;27.27;10.15;;;;;;;;;;5094209;28;20065;-39
2023/04/26 05:42:12;;;;;;;23.90;10.00;;;;;;;;;;5094164;28;20386;-39
2023/04/26 05:44:39;;;;;;;21.08;9.00;;;;;;;;;;5075622;28;20044;-39
2023/04/26 05:47:06;;;;;;;26.70;9.93;;;;;;;;;;5094021;28;20020;-39
2023/04/26 05:49:33;;;;;;;22.52;9.13;;;;;;;;;;5094084;28;20026;-39
2023/04/26 05:52:02;;;;;;;22.73;9.13;;;;;;;;;;5094002;28;20023;-39
2023/04/26 05:54:29;;;;;;;19.90;8.77;;;;;;;;;;5093832;28;20044;-39
2023/04/26 05:56:56;;;;;;;22.00;8.93;;;;;;;;;;5093450;28;20051;-38
2023/04/26 05:59:23;;;;;;;23.17;9.43;;;;;;;;;;5093734;28;20050;-37
2023/04/26 06:01:50;;;;;;;22.23;8.88;;;;;;;;;;5091638;28;20032;-39
2023/04/26 06:04:17;;;;;;;25.02;9.13;;;;;;;;;;5093705;28;20020;-39
2023/04/26 06:06:44;;;;;;;24.48;9.98;;;;;;;;;;5093682;28;20024;-39
2023/04/26 06:09:11;;;;;;;20.02;8.43;;;;;;;;;;5093658;28;20067;-39
2023/04/26 06:11:39;;;;;;;20.17;8.38;;;;;;;;;;5093344;28;20129;-40
2023/04/26 06:14:06;;;;;;;19.05;8.68;;;;;;;;;;5093286;28;20149;-39
2023/04/26 06:16:33;;;;;;;22.10;8.80;;;;;;;;;;5093277;28;20032;-39
2023/04/26 06:19:00;;;;;;;19.85;7.88;;;;;;;;;;5093348;28;20054;-39
2023/04/26 06:21:27;;;;;;;19.42;8.05;;;;;;;;;;5093292;28;20498;-39
2023/04/26 06:23:54;;;;;;;19.95;7.80;;;;;;;;;;5093152;28;20103;-39
2023/04/26 06:26:21;;;;;;;19.30;7.93;;;;;;;;;;5093153;28;20024;-40
2023/04/26 06:28:48;;;;;;;20.65;8.30;;;;;;;;;;5093228;28;20397;-39
2023/04/26 06:31:15;;;;;;;16.80;7.85;;;;;;;;;;5093147;28;20032;-39
2023/04/26 06:33:42;;;;;;;15.70;7.72;;;;;;;;;;5093064;28;20035;-39
2023/04/26 06:36:12;;;;;;;20.20;7.57;;;;;;;;;;5092950;28;20020;-39
2023/04/26 06:38:39;;;;;;;15.05;7.57;;;;;;;;;;5092829;28;20156;-40
2023/04/26 06:41:07;;;;;;;20.33;7.47;;;;;;;;;;5092794;28;20375;-39
2023/04/26 06:43:34;;;;;;;22.98;7.93;;;;;;;;;;5092690;28;20036;-39
2023/04/26 06:46:01;;;;;;;18.20;7.57;;;;;;;;;;5092856;28;20057;-39
2023/04/26 06:48:28;;;;;;;17.35;7.45;;;;;;;;;;5092869;28;20044;-39
2023/04/26 06:50:55;;;;;;;17.42;7.88;;;;;;;;;;5092772;28;20039;-39
2023/04/26 06:55:52;;;;;;;14.10;7.18;;;;;;;;;;5207944;22;20501;-52
2023/04/26 06:58:20;;;;;;;14.32;6.75;;;;;;;;;;5072338;28;20037;-50
2023/04/26 07:00:47;;;;;;;18.52;7.47;;;;;;;;;;5072382;28;20051;-50
2023/04/26 07:03:14;;;;;;;17.02;6.85;;;;;;;;;;5072380;28;20020;-54
2023/04/26 07:05:41;;;;;;;17.20;7.28;;;;;;;;;;5072137;28;20100;-53
2023/04/26 07:08:08;;;;;;;15.57;6.93;;;;;;;;;;5072218;28;20027;-50
2023/04/26 07:10:35;;;;;;;16.33;6.80;;;;;;;;;;5072056;28;20068;-50
2023/04/26 07:13:02;;;;;;;14.57;6.60;;;;;;;;;;5087601;28;20363;-52
2023/04/26 07:15:30;;;;;;;13.93;6.65;;;;;;;;;;5071927;28;20048;-54
2023/04/26 07:17:57;;;;;;;15.95;6.75;;;;;;;;;;5072083;28;20483;-51
2023/04/26 07:20:24;;;;;;;14.25;6.60;;;;;;;;;;5071991;28;20549;-52
2023/04/26 07:22:51;;;;;;;16.90;7.22;;;;;;;;;;5072016;28;20019;-50
2023/04/26 07:25:18;;;;;;;10.45;6.13;;;;;;;;;;5071859;28;20032;-50
2023/04/26 07:27:45;;;;;;;15.38;6.40;;;;;;;;;;5071942;28;20025;-51
2023/04/26 07:30:12;;;;;;;13.90;6.72;;;;;;;;;;5071898;28;20070;-51
2023/04/26 07:32:39;;;;;;;16.05;6.45;;;;;;;;;;5071933;28;20056;-51
2023/04/26 07:35:07;;;;;;;12.10;5.65;;;;;;;;;;5071646;28;20113;-53
2023/04/26 07:37:34;;;;;;;15.57;7.13;;;;;;;;;;5071687;28;20039;-51
2023/04/26 07:40:01;;;;;;;12.23;6.05;;;;;;;;;;5071805;28;20111;-49
2023/04/26 07:42:28;;;;;;;14.55;6.55;;;;;;;;;;5071623;28;20028;-51
2023/04/26 07:44:55;;;;;;;13.30;6.40;;;;;;;;;;5071581;28;20478;-50
2023/04/26 07:47:22;;;;;;;15.25;5.95;;;;;;;;;;5071708;28;20490;-51
2023/04/26 07:49:53;;;;;;;14.50;5.93;;;;;;;;;;5071563;28;20074;-50
2023/04/26 07:52:20;;;;;;;14.57;6.30;;;;;;;;;;5071646;28;20027;-52
2023/04/26 07:54:47;;;;;;;13.60;5.35;;;;;;;;;;5071265;28;20053;-53
2023/04/26 07:57:15;;;;;;;12.65;5.72;;;;;;;;;;5071594;28;20020;-51
2023/04/26 07:59:42;;;;;;;12.77;5.80;;;;;;;;;;5071191;28;20090;-54
2023/04/26 08:02:09;;;;;;;10.20;5.53;;;;;;;;;;5071466;28;20062;-52
2023/04/26 08:04:36;;;;;;;13.45;5.43;;;;;;;;;;5071371;28;20086;-54
2023/04/26 08:07:03;;;;;;;13.25;6.30;;;;;;;;;;5071411;28;20070;-53
2023/04/26 08:09:30;;;;;;;11.65;5.60;;;;;;;;;;5090533;28;20030;-49
2023/04/26 08:11:57;;;;;;;11.73;5.43;;;;;;;;;;5075662;28;20382;-50
2023/04/26 08:14:24;;;;;;;11.40;5.60;;;;;;;;;;5075408;28;20044;-53
2023/04/26 08:16:51;;;;;;;10.93;5.50;;;;;;;;;;5075381;28;20062;-52
2023/04/26 08:19:18;;;;;;;9.90;5.45;;;;;;;;;;5075381;28;20029;-54
2023/04/26 08:21:45;;;;;;;9.88;5.43;;;;;;;;;;5075416;28;20024;-50
2023/04/26 08:24:12;;;;;;;12.18;5.63;;;;;;;;;;5075252;28;20594;-52
2023/04/26 08:26:40;;;;;;;10.05;5.32;;;;;;;;;;5075241;28;20382;-52
2023/04/26 08:29:06;;;;;;;10.98;5.78;;;;;;;;;;5075092;28;20032;-53
2023/04/26 08:31:34;;;;;;;10.27;5.03;;;;;;;;;;5075218;28;20490;-52
2023/04/26 08:34:01;;;;;;;12.25;5.35;;;;;;;;;;5075197;28;20038;-50
2023/04/26 08:36:28;;;;;;;9.57;4.82;;;;;;;;;;5075096;28;20020;-55
2023/04/26 08:38:56;;;;;;;11.68;5.38;;;;;;;;;;5075042;28;20468;-52
2023/04/26 08:41:25;;;;;;;10.63;4.93;;;;;;;;;;5074970;28;20111;-51
2023/04/26 08:43:55;;;;;;;11.02;5.03;;;;;;;;;;5074834;28;20116;-53
2023/04/26 08:46:22;;;;;;;14.02;5.03;;;;;;;;;;5074860;28;20032;-52
2023/04/26 08:49:05;;;;;;;10.38;4.75;;;;;;;;;;5073347;28;20100;-52
2023/04/26 08:51:33;;;;;;;8.32;4.80;;;;;;;;;;5074086;28;20031;-52
2023/04/26 08:54:01;;;;;;;8.43;4.78;;;;;;;;;;5073976;28;20021;-53
2023/04/26 08:56:28;;;;;;;10.25;5.10;;;;;;;;;;5074741;28;20020;-52
2023/04/26 08:58:55;;;;;;;10.00;4.70;;;;;;;;;;5072632;28;20103;-51
2023/04/26 09:01:24;;;;;;;8.90;4.68;;;;;;;;;;5073418;28;20078;-50
2023/04/26 09:03:54;;;;;;;8.98;4.57;;;;;;;;;;5072603;28;20038;-54
2023/04/26 09:06:26;;;;;;;13.68;4.75;;;;;;;;;;5074559;28;20035;-52
2023/04/26 09:08:56;;;;;;;8.68;4.50;;;;;;;;;;5074482;28;20025;-50
2023/04/26 09:11:24;;;;;;;10.95;4.55;;;;;;;;;;5073305;28;20082;-52
2023/04/26 09:13:53;;;;;;;12.27;4.50;;;;;;;;;;5072015;28;20059;-52
2023/04/26 09:16:20;;;;;;;12.68;5.22;;;;;;;;;;5074275;28;20103;-51
2023/04/26 09:18:56;;;;;;;11.77;4.78;;;;;;;;;;5073905;28;20020;-54
2023/04/26 09:21:28;;;;;;;10.50;4.60;;;;;;;;;;5073167;28;20043;-53
2023/04/26 09:24:05;;;;;;;9.57;4.97;;;;;;;;;;5072044;28;20063;-52
2023/04/26 09:26:32;;;;;;;13.18;5.32;;;;;;;;;;5070607;28;20765;-53
2023/04/26 09:29:25;;;;;;;9.73;4.95;;;;;;;;;;5073353;28;20060;-51
2023/04/26 09:31:52;;;;;;;11.25;5.03;;;;;;;;;;5067662;28;20032;-52
2023/04/26 09:34:19;;;;;;;15.43;6.18;;;;;;;;;;5073352;28;20039;-52
2023/04/26 09:36:56;;;;;;;8.80;5.25;;;;;;;;;;5072741;28;20513;-51
2023/04/26 09:39:36;;;;;;;9.05;5.35;;;;;;;;;;5069290;28;20033;-53
2023/04/26 09:42:04;;;;;;;15.93;5.50;;;;;;;;;;5060323;28;20582;-54
2023/04/26 09:44:31;;;;;;;15.52;6.00;;;;;;;;;;5073394;28;20028;-53
2023/04/26 09:47:05;;;;;;;12.15;5.88;;;;;;;;;;5073630;28;20112;-52
2023/04/26 09:49:33;;;;;;;11.23;6.03;;;;;;;;;;5073783;28;20020;-51
2023/04/26 09:52:01;;;;;;;13.90;6.05;;;;;;;;;;5073684;28;20422;-53
2023/04/26 09:54:44;;;;;;;14.35;6.13;;;;;;;;;;5073325;28;20080;-53
2023/04/26 09:57:12;;;;;;;15.00;6.60;;;;;;;;;;5073597;28;20020;-54
2023/04/26 09:59:46;;;;;;;13.43;6.10;;;;;;;;;;5073597;28;20138;-54
2023/04/26 10:02:21;;;;;;;13.80;5.50;;;;;;;;;;5073380;28;20422;-54
2023/04/26 10:04:49;;;;;;;13.75;6.28;;;;;;;;;;5072942;28;20059;-53
2023/04/26 10:07:17;;;;;;;15.98;5.68;;;;;;;;;;5067130;28;20027;-51
2023/04/26 10:09:45;;;;;;;12.70;6.10;;;;;;;;;;5072529;28;20017;-51
2023/04/26 10:12:13;;;;;;;12.18;6.00;;;;;;;;;;5071047;28;20036;-52
2023/04/26 10:14:40;;;;;;;15.43;6.28;;;;;;;;;;5071983;28;20107;-55
2023/04/26 10:17:08;;;;;;;12.30;6.22;;;;;;;;;;5072687;28;20109;-50
2023/04/26 10:19:35;;;;;;;19.45;5.95;;;;;;;;;;5071402;28;20120;-51
2023/04/26 10:22:09;;;;;;;18.70;6.18;;;;;;;;;;5072676;28;20103;-48
2023/04/26 10:24:36;;;;;;;20.73;6.43;;;;;;;;;;5072392;28;20482;-56
2023/04/26 10:27:04;;;;;;;17.08;6.22;;;;;;;;;;5070622;28;20025;-52
2023/04/26 10:30:09;;;;;;;21.92;6.65;;;;;;;;;;5071248;28;20398;-50
2023/04/26 10:33:02;;;;;;;14.00;6.80;;;;;;;;;;4990114;28;20157;-50
2023/04/26 10:35:30;;;;;;;13.75;6.80;;;;;;;;;;4968508;28;20109;-49
2023/04/26 10:37:59;;;;;;;16.05;6.85;;;;;;;;;;5045410;28;20059;-52
2023/04/26 10:40:28;;;;;;;13.93;6.20;;;;;;;;;;5072021;28;20427;-51
2023/04/26 10:43:13;;;;;;;19.15;6.78;;;;;;;;;;5070079;28;20027;-49
2023/04/26 10:45:41;;;;;;;16.23;6.75;;;;;;;;;;5071945;28;20070;-49
2023/04/26 10:48:20;;;;;;;17.33;6.20;;;;;;;;;;5072634;28;20024;-49
2023/04/26 10:51:07;;;;;;;18.85;6.78;;;;;;;;;;5072360;28;20450;-48
2023/04/26 10:53:46;;;;;;;20.88;6.55;;;;;;;;;;5069313;28;20462;-50
2023/04/26 10:56:28;;;;;;;13.57;6.55;;;;;;;;;;5072227;28;20558;-48
2023/04/26 10:58:54;;;;;;;;;;;;;;;;;;5073715;28;20458;-48
2023/04/26 11:01:22;;;;;;;15.77;6.38;;;;;;;;;;5079586;28;19911;-50
2023/04/26 11:03:58;;;;;;;17.42;6.50;;;;;;;;;;5073998;28;20043;-48
2023/04/26 11:06:25;;;;;;;18.85;6.13;;;;;;;;;;5069686;28;20039;-50
2023/04/26 11:08:53;;;;;;;17.98;6.45;;;;;;;;;;5071425;28;20039;-50
2023/04/26 11:11:21;;;;;;;16.05;6.00;;;;;;;;;;5051935;28;20033;-50
2023/04/26 11:13:48;;;;;;;23.65;6.07;;;;;;;;;;5050139;28;20029;-49
2023/04/26 11:16:15;;;;;;;12.27;5.60;;;;;;;;;;5051588;28;20518;-50
2023/04/26 11:18:44;;;;;;;18.45;6.03;;;;;;;;;;5052019;28;20052;-49
2023/04/26 11:21:12;;;;;;;14.48;5.97;;;;;;;;;;5051898;28;20024;-55
2023/04/26 11:23:40;;;;;;;16.38;5.80;;;;;;;;;;5050051;28;20033;-54
2023/04/26 11:26:07;;;;;;;17.20;6.18;;;;;;;;;;5051267;28;20017;-52
2023/04/26 11:28:36;;;;;;;19.92;6.05;;;;;;;;;;5061494;28;20039;-51
2023/04/26 11:31:03;;;;;;;15.52;5.85;;;;;;;;;;5047659;28;20405;-53
2023/04/26 11:33:31;;;;;;;18.52;5.63;;;;;;;;;;5070346;28;20025;-51
2023/04/26 11:35:58;;;;;;;20.48;5.30;;;;;;;;;;5069716;28;20143;-50
2023/04/26 11:38:25;;;;;;;14.27;5.70;;;;;;;;;;5071216;28;20056;-54
2023/04/26 11:41:03;;;;;;;18.85;5.57;;;;;;;;;;5071306;28;20021;-51
2023/04/26 11:43:39;;;;;;;23.30;6.50;;;;;;;;;;5070903;28;20383;-51
2023/04/26 11:46:08;;;;;;;19.52;6.13;;;;;;;;;;5069332;28;20516;-50
2023/04/26 11:48:36;;;;;;;19.38;5.32;;;;;;;;;;5070478;28;20024;-49
2023/04/26 11:51:04;;;;;;;19.42;5.82;;;;;;;;;;5064409;28;20041;-49
2023/04/26 11:53:41;;;;;;;19.08;6.07;;;;;;;;;;5067018;28;20486;-50
2023/04/26 11:56:17;;;;;;;20.02;5.85;;;;;;;;;;5069244;28;20160;-51
2023/04/26 11:58:45;;;;;;;17.05;5.68;;;;;;;;;;5071379;28;20048;-50
2023/04/26 12:01:12;;;;;;;20.52;5.32;;;;;;;;;;5070311;28;20024;-49
2023/04/26 12:03:39;;;;;;;17.38;5.50;;;;;;;;;;5073126;28;20028;-52
2023/04/26 12:06:06;;;;;;;21.10;6.10;;;;;;;;;;5072253;28;20391;-54
2023/04/26 12:08:33;;;;;;;28.10;6.32;;;;;;;;;;5077977;28;20367;-52
2023/04/26 12:11:01;;;;;;;21.67;5.60;;;;;;;;;;5069994;28;20045;-52
2023/04/26 12:13:31;;;;;;;21.30;5.97;;;;;;;;;;5065734;28;20103;-58
2023/04/26 12:15:58;;;;;;;20.27;5.47;;;;;;;;;;5064058;28;20051;-60
2023/04/26 12:18:32;;;;;;;19.75;5.88;;;;;;;;;;5069525;28;20490;-57
2023/04/26 12:21:00;;;;;;;18.98;6.10;;;;;;;;;;5071159;28;20545;-56
2023/04/26 12:23:27;;;;;;;22.75;6.15;;;;;;;;;;5070617;28;20037;-59
2023/04/26 12:26:00;;;;;;;20.98;5.88;;;;;;;;;;5070954;28;20478;-60
2023/04/26 12:28:28;;;;;;;20.95;6.00;;;;;;;;;;5064905;28;20039;-56
2023/04/26 12:30:55;;;;;;;22.38;5.97;;;;;;;;;;5071220;28;20082;-56
2023/04/26 12:33:24;;;;;;;19.25;5.55;;;;;;;;;;5070956;28;20031;-58
2023/04/26 12:35:51;;;;;;;23.98;6.13;;;;;;;;;;5070640;28;20047;-54
2023/04/26 12:38:18;;;;;;;23.00;5.80;;;;;;;;;;5067500;28;20078;-56
2023/04/26 12:40:45;;;;;;;18.55;5.63;;;;;;;;;;5078141;28;20024;-57
2023/04/26 12:43:12;;;;;;;19.50;5.97;;;;;;;;;;5090842;28;20028;-58
2023/04/26 12:45:39;;;;;;;18.30;5.57;;;;;;;;;;5091224;28;20047;-60
2023/04/26 12:48:06;;;;;;;19.98;4.93;;;;;;;;;;5090987;28;20086;-54
2023/04/26 12:50:33;;;;;;;18.55;5.43;;;;;;;;;;5069260;28;20437;-54
2023/04/26 12:53:00;;;;;;;16.23;5.38;;;;;;;;;;5068349;28;20028;-53
2023/04/26 12:55:28;;;;;;;17.70;5.10;;;;;;;;;;5073019;28;20044;-57
2023/04/26 12:57:55;;;;;;;17.35;5.32;;;;;;;;;;5073473;28;20017;-54
2023/04/26 13:00:22;;;;;;;17.73;5.10;;;;;;;;;;5071995;28;20111;-54
2023/04/26 13:02:49;;;;;;;17.33;5.90;;;;;;;;;;5064295;28;20508;-55
2023/04/26 13:05:16;;;;;;;17.55;4.97;;;;;;;;;;5060921;28;20433;-54
2023/04/26 13:07:43;;;;;;;17.42;5.18;;;;;;;;;;5070089;28;20047;-55
2023/04/26 13:10:10;;;;;;;16.33;4.60;;;;;;;;;;5073007;28;20067;-55
2023/04/26 13:12:39;;;;;;;12.80;4.53;;;;;;;;;;5072982;28;20024;-52
2023/04/26 13:15:06;;;;;;;17.92;5.00;;;;;;;;;;5070294;28;20037;-53
2023/04/26 13:17:35;;;;;;;14.30;4.43;;;;;;;;;;5073633;28;20028;-50
2023/04/26 13:20:03;;;;;;;12.50;4.63;;;;;;;;;;5074112;28;20028;-51
2023/04/26 13:22:30;;;;;;;14.80;4.80;;;;;;;;;;5072503;28;20029;-54
2023/04/26 13:24:57;;;;;;;18.42;4.90;;;;;;;;;;5073561;28;20089;-51
2023/04/26 13:27:24;;;;;;;13.85;4.55;;;;;;;;;;5074008;28;20035;-51
2023/04/26 13:29:51;;;;;;;15.13;4.63;;;;;;;;;;5073485;28;20037;-55
2023/04/26 13:32:18;;;;;;;19.60;5.25;;;;;;;;;;5072106;28;20542;-55
2023/04/26 13:34:45;;;;;;;16.02;4.70;;;;;;;;;;5073184;28;20434;-49
2023/04/26 13:37:13;;;;;;;15.95;4.55;;;;;;;;;;5071942;28;20024;-52
2023/04/26 13:39:40;;;;;;;15.10;4.53;;;;;;;;;;5072846;28;20063;-54
2023/04/26 13:42:07;;;;;;;18.13;4.82;;;;;;;;;;5087630;28;20027;-56
2023/04/26 13:44:34;;;;;;;19.55;5.00;;;;;;;;;;5093906;28;20081;-53
2023/04/26 13:47:01;;;;;;;14.45;4.07;;;;;;;;;;5093685;28;20021;-56
2023/04/26 13:49:28;;;;;;;13.63;4.25;;;;;;;;;;5082722;28;20035;-57
2023/04/26 13:51:55;;;;;;;16.17;4.35;;;;;;;;;;5054511;28;20861;-56
2023/04/26 13:54:24;;;;;;;14.50;3.90;;;;;;;;;;5061141;28;20098;-52
2023/04/26 13:56:52;;;;;;;17.02;4.15;;;;;;;;;;5060379;28;20040;-55
2023/04/26 13:59:19;;;;;;;10.77;4.40;;;;;;;;;;5063755;28;20039;-56
2023/04/26 14:01:47;;;;;;;11.93;3.95;;;;;;;;;;5058235;28;20025;-52
2023/04/26 14:04:14;;;;;;;10.02;3.78;;;;;;;;;;5067826;28;20078;-54
2023/04/26 14:06:41;;;;;;;11.75;3.95;;;;;;;;;;5066384;28;20024;-52
2023/04/26 14:09:08;;;;;;;16.85;4.53;;;;;;;;;;5071574;28;20111;-56
2023/04/26 14:11:35;;;;;;;13.50;4.00;;;;;;;;;;5072281;28;20025;-50
2023/04/26 14:14:02;;;;;;;22.85;4.32;;;;;;;;;;5072574;28;20028;-58
2023/04/26 14:16:29;;;;;;;13.13;3.80;;;;;;;;;;5072203;28;20112;-53
2023/04/26 14:18:56;;;;;;;11.55;3.78;;;;;;;;;;5072983;28;20029;-51
2023/04/26 14:21:25;;;;;;;25.70;4.03;;;;;;;;;;5073162;28;20028;-52
2023/04/26 14:23:52;;;;;;;21.92;3.67;;;;;;;;;;5072057;28;20024;-54
2023/04/26 14:26:19;;;;;;;16.95;3.97;;;;;;;;;;5072227;28;20024;-54
2023/04/26 14:28:46;;;;;;;12.52;3.97;;;;;;;;;;5062491;28;20028;-54
2023/04/26 14:31:16;;;;;;;14.95;4.05;;;;;;;;;;5062729;28;20033;-56
2023/04/26 14:33:43;;;;;;;14.18;4.18;;;;;;;;;;5067723;28;20029;-55